Time;durP1;ratioP1;P1;durP2;ratioP2;P2;SDS_P1;SDS_P2;PMS_P1;PMS_P2;Temp;Humidity;BMP_temperature;BMP_pressure;BME280_temperature;BME280_humidity;BME280_pressure;Samples;Min_cycle;Max_cycle;Signal;HPM_P1;HPM_P2
2022/07/12 00:00:23;;;;;;;0.00;0.00;;;15.10;99.90;;;;;;4961705;28;20836;-74
2022/07/12 00:02:51;;;;;;;0.00;0.00;;;15.10;99.90;;;;;;4961797;28;20452;-73
2022/07/12 00:05:19;;;;;;;0.00;0.00;;;15.10;99.90;;;;;;4961977;28;20440;-74
2022/07/12 00:07:47;;;;;;;0.00;0.00;;;15.10;99.90;;;;;;4961768;28;20768;-72
2022/07/12 00:10:15;;;;;;;0.00;0.00;;;15.10;99.90;;;;;;4961720;28;20475;-72
2022/07/12 00:12:43;;;;;;;0.00;0.00;;;15.10;99.90;;;;;;4961220;28;20514;-73
2022/07/12 00:15:12;;;;;;;0.00;0.00;;;15.10;99.90;;;;;;4961182;28;20544;-73
2022/07/12 00:17:40;;;;;;;0.00;0.00;;;15.10;99.90;;;;;;4961265;28;20478;-72
2022/07/12 00:20:09;;;;;;;0.00;0.00;;;15.00;99.90;;;;;;4961231;28;20447;-73
2022/07/12 00:22:36;;;;;;;0.00;0.00;;;15.00;99.90;;;;;;4960801;28;20983;-73
2022/07/12 00:25:05;;;;;;;0.00;0.00;;;15.00;99.90;;;;;;4961215;28;20474;-73
2022/07/12 00:27:33;;;;;;;0.00;0.00;;;14.90;99.90;;;;;;4961284;28;20819;-73
2022/07/12 00:30:01;;;;;;;0.00;0.00;;;14.90;99.90;;;;;;4961360;28;20454;-73
2022/07/12 00:32:30;;;;;;;0.00;0.00;;;14.80;99.90;;;;;;4961210;28;21093;-73
2022/07/12 00:34:58;;;;;;;0.00;0.00;;;14.80;99.90;;;;;;4961138;28;20965;-72
2022/07/12 00:37:26;;;;;;;0.00;0.00;;;14.70;99.90;;;;;;4961436;28;20707;-74
2022/07/12 00:39:54;;;;;;;0.00;0.00;;;14.70;99.90;;;;;;4962737;28;20509;-74
2022/07/12 00:42:21;;;;;;;0.00;0.00;;;14.70;99.90;;;;;;4961323;28;20516;-73
2022/07/12 00:44:49;;;;;;;0.00;0.00;;;14.60;99.90;;;;;;4966888;28;20455;-74
2022/07/12 00:47:28;;;;;;;0.00;0.00;;;14.60;99.90;;;;;;4976702;28;20770;-73
2022/07/12 00:49:58;;;;;;;0.00;0.00;;;14.60;99.90;;;;;;4961831;28;20440;-73
2022/07/12 00:52:26;;;;;;;0.00;0.00;;;14.60;99.90;;;;;;4960956;28;20950;-73
2022/07/12 00:54:53;;;;;;;0.00;0.00;;;14.60;99.90;;;;;;4961171;28;20454;-73
2022/07/12 00:57:21;;;;;;;0.00;0.00;;;14.60;99.90;;;;;;4960738;28;20489;-73
2022/07/12 00:59:50;;;;;;;0.00;0.00;;;14.50;99.90;;;;;;4960722;28;20474;-73
2022/07/12 01:02:18;;;;;;;0.00;0.00;;;14.50;99.90;;;;;;4960443;28;20963;-73
2022/07/12 01:04:47;;;;;;;0.00;0.00;;;14.40;99.90;;;;;;4960751;28;20547;-73
2022/07/12 01:07:16;;;;;;;0.00;0.00;;;14.40;99.90;;;;;;4960152;28;21233;-73
2022/07/12 01:09:44;;;;;;;0.00;0.00;;;14.40;99.90;;;;;;4960887;28;20890;-73
2022/07/12 01:12:13;;;;;;;0.00;0.00;;;14.40;99.90;;;;;;4960361;28;20690;-73
2022/07/12 01:14:41;;;;;;;0.00;0.00;;;14.40;99.90;;;;;;4960264;28;20612;-74
2022/07/12 01:17:09;;;;;;;0.00;0.00;;;14.40;99.90;;;;;;4959538;28;20963;-73
2022/07/12 01:19:38;;;;;;;0.00;0.00;;;14.40;99.90;;;;;;4960256;28;20783;-73
2022/07/12 01:22:09;;;;;;;0.00;0.00;;;14.30;99.90;;;;;;4960225;28;20474;-73
2022/07/12 01:24:38;;;;;;;0.00;0.00;;;14.30;99.90;;;;;;4961029;28;20466;-73
2022/07/12 01:27:07;;;;;;;0.00;0.00;;;14.30;99.90;;;;;;4960222;28;20484;-73
2022/07/12 01:29:36;;;;;;;0.00;0.00;;;14.20;99.90;;;;;;4960249;28;20801;-73
2022/07/12 01:34:47;;;;;;;0.00;0.00;;;14.20;99.90;;;;;;4959994;28;20463;-73
2022/07/12 01:37:15;;;;;;;0.00;0.00;;;14.20;99.90;;;;;;4960026;28;20784;-73
2022/07/12 01:39:45;;;;;;;0.00;0.00;;;14.10;99.90;;;;;;4960047;28;20452;-73
2022/07/12 01:42:13;;;;;;;0.00;0.00;;;14.10;99.90;;;;;;4959934;28;20744;-73
2022/07/12 01:44:42;;;;;;;0.00;0.00;;;14.10;99.90;;;;;;4960103;28;20829;-73
2022/07/12 01:47:10;;;;;;;0.00;0.00;;;14.00;99.90;;;;;;4959876;28;20555;-73
2022/07/12 01:49:38;;;;;;;0.00;0.00;;;14.00;99.90;;;;;;4960008;28;20555;-73
2022/07/12 01:52:06;;;;;;;0.00;0.00;;;14.00;99.90;;;;;;4959490;28;20673;-73
2022/07/12 01:54:35;;;;;;;0.00;0.00;;;14.00;99.90;;;;;;4960106;28;20819;-73
2022/07/12 01:57:05;;;;;;;0.00;0.00;;;13.90;99.90;;;;;;4959477;28;20484;-73
2022/07/12 01:59:33;;;;;;;0.00;0.00;;;13.90;99.90;;;;;;4959635;28;20717;-73
2022/07/12 02:02:01;;;;;;;0.00;0.00;;;13.90;99.90;;;;;;4959489;28;20479;-73
2022/07/12 02:04:29;;;;;;;0.00;0.00;;;13.80;99.90;;;;;;4959745;28;20479;-73
2022/07/12 02:06:58;;;;;;;0.00;0.00;;;13.80;99.90;;;;;;4959679;28;21013;-73
2022/07/12 02:09:25;;;;;;;0.00;0.00;;;13.80;99.90;;;;;;4961203;28;20448;-73
2022/07/12 02:11:54;;;;;;;0.00;0.00;;;13.80;99.90;;;;;;4966475;28;20947;-73
2022/07/12 02:14:23;;;;;;;0.00;0.00;;;13.80;99.90;;;;;;4964913;28;20444;-73
2022/07/12 02:16:51;;;;;;;0.00;0.00;;;13.80;99.90;;;;;;4960996;28;20773;-73
2022/07/12 02:21:55;;;;;;;0.00;0.00;;;13.70;99.90;;;;;;5308364;23;20499;-91
2022/07/12 02:24:23;;;;;;;0.00;0.00;;;13.70;99.90;;;;;;4973133;28;20467;-93
2022/07/12 02:26:52;;;;;;;0.00;0.00;;;13.70;99.90;;;;;;4972733;28;20476;-90
2022/07/12 02:29:20;;;;;;;0.00;0.00;;;13.70;99.90;;;;;;4985816;28;20432;-92
2022/07/12 02:31:50;;;;;;;0.00;0.00;;;13.60;99.90;;;;;;4990743;28;20484;-92
2022/07/12 02:34:18;;;;;;;0.00;0.00;;;13.60;99.90;;;;;;4974988;28;20487;-93
2022/07/12 02:36:47;;;;;;;0.00;0.00;;;13.60;99.90;;;;;;4973205;28;20543;-93
2022/07/12 02:39:16;;;;;;;0.00;0.00;;;13.60;99.90;;;;;;4973292;28;20459;-92
2022/07/12 02:41:45;;;;;;;0.00;0.00;;;13.60;99.90;;;;;;4974157;28;20456;-92
2022/07/12 02:44:13;;;;;;;0.00;0.00;;;13.60;99.90;;;;;;4974433;28;20452;-93
2022/07/12 02:46:41;;;;;;;0.00;0.00;;;13.70;99.90;;;;;;4973341;28;20491;-93
2022/07/12 02:49:12;;;;;;;0.00;0.00;;;13.60;99.90;;;;;;4976010;28;20494;-94
2022/07/12 02:51:40;;;;;;;0.00;0.00;;;13.70;99.90;;;;;;4981574;28;20448;-93
2022/07/12 02:54:11;;;;;;;0.00;0.00;;;13.70;99.90;;;;;;4978169;28;20631;-93
2022/07/12 02:56:40;;;;;;;0.00;0.00;;;13.70;99.90;;;;;;4989603;28;21016;-92
2022/07/12 02:59:08;;;;;;;0.00;0.00;;;13.70;99.90;;;;;;4985298;28;20451;-92
2022/07/12 03:01:36;;;;;;;0.00;0.00;;;13.80;99.90;;;;;;4974692;28;20488;-93
2022/07/12 03:04:07;;;;;;;0.00;0.00;;;13.70;99.90;;;;;;4973395;28;20476;-93
2022/07/12 03:06:37;;;;;;;0.00;0.00;;;13.70;99.90;;;;;;4972707;28;20543;-93
2022/07/12 03:09:07;;;;;;;0.00;0.00;;;13.60;99.90;;;;;;4973492;28;20510;-93
2022/07/12 03:11:35;;;;;;;0.00;0.00;;;13.60;99.90;;;;;;4973299;28;20688;-91
2022/07/12 03:14:04;;;;;;;0.00;0.00;;;13.60;99.90;;;;;;4977449;28;20515;-93
2022/07/12 03:16:36;;;;;;;0.00;0.00;;;13.70;99.90;;;;;;4973516;28;20522;-92
2022/07/12 03:19:04;;;;;;;0.00;0.00;;;13.70;99.90;;;;;;4975940;28;20577;-92
2022/07/12 03:21:33;;;;;;;0.00;0.00;;;13.70;99.90;;;;;;4975758;28;20476;-91
2022/07/12 03:24:03;;;;;;;0.00;0.00;;;13.70;99.90;;;;;;4971400;28;20487;-94
2022/07/12 03:26:31;;;;;;;0.00;0.00;;;13.70;99.90;;;;;;4970881;28;20459;-92
2022/07/12 03:29:00;;;;;;;0.00;0.00;;;13.70;99.90;;;;;;4985246;28;20448;-91
2022/07/12 03:31:28;;;;;;;0.00;0.00;;;13.70;99.90;;;;;;4985226;28;20447;-93
2022/07/12 03:33:57;;;;;;;0.00;0.00;;;13.60;99.90;;;;;;4978794;28;20550;-92
2022/07/12 03:36:26;;;;;;;0.00;0.00;;;13.70;99.90;;;;;;4979032;28;20478;-93
2022/07/12 03:38:54;;;;;;;0.00;0.00;;;13.60;99.90;;;;;;4975792;28;20551;-93
2022/07/12 03:41:23;;;;;;;0.00;0.00;;;13.70;99.90;;;;;;4976684;28;20705;-93
2022/07/12 03:43:52;;;;;;;0.10;0.00;;;13.80;99.90;;;;;;4977607;28;20535;-92
2022/07/12 03:46:20;;;;;;;0.00;0.00;;;13.80;99.90;;;;;;4979078;28;20467;-92
2022/07/12 03:48:49;;;;;;;0.00;0.00;;;13.80;99.90;;;;;;4977350;28;20452;-93
2022/07/12 03:51:17;;;;;;;0.00;0.00;;;13.80;99.90;;;;;;4977338;28;20867;-94
2022/07/12 03:53:46;;;;;;;0.00;0.00;;;13.80;99.90;;;;;;4977228;28;20498;-94
2022/07/12 03:57:13;;;;;;;0.00;0.00;;;13.80;99.90;;;;;;4978203;28;20452;-93
2022/07/12 03:59:05;;;;;;;0.00;0.00;;;13.90;99.90;;;;;;4981578;28;20760;-92
2022/07/12 04:01:34;;;;;;;0.00;0.00;;;13.90;99.90;;;;;;4981220;28;20463;-93
2022/07/12 04:04:05;;;;;;;0.00;0.00;;;13.90;99.90;;;;;;4985911;28;20476;-92
2022/07/12 04:06:34;;;;;;;0.00;0.00;;;13.90;99.90;;;;;;4984377;28;20448;-93
2022/07/12 04:09:04;;;;;;;0.00;0.00;;;13.90;99.90;;;;;;4981580;28;20456;-96
2022/07/12 04:11:35;;;;;;;0.00;0.00;;;14.00;99.90;;;;;;4981066;28;20809;-92
2022/07/12 04:14:05;;;;;;;0.00;0.00;;;14.00;99.90;;;;;;4978540;28;20526;-92
2022/07/12 04:16:35;;;;;;;0.00;0.00;;;14.00;99.90;;;;;;4980008;28;20768;-94
2022/07/12 04:19:05;;;;;;;0.00;0.00;;;14.10;99.90;;;;;;4975683;28;20476;-92
2022/07/12 04:21:33;;;;;;;0.00;0.00;;;14.10;99.90;;;;;;4975093;28;20475;-92
2022/07/12 04:24:02;;;;;;;0.00;0.00;;;14.10;99.90;;;;;;4975164;28;20483;-92
2022/07/12 04:26:32;;;;;;;0.00;0.00;;;14.10;99.90;;;;;;4976751;28;20460;-91
2022/07/12 04:29:00;;;;;;;0.00;0.00;;;14.20;99.90;;;;;;4982514;28;20438;-92
2022/07/12 04:31:30;;;;;;;0.00;0.00;;;14.20;99.90;;;;;;4991022;28;20506;-92
2022/07/12 04:34:16;;;;;;;0.00;0.00;;;14.20;99.90;;;;;;4933897;29;20478;-93
2022/07/12 04:36:45;;;;;;;0.00;0.00;;;14.20;99.90;;;;;;4933499;29;20460;-93
2022/07/12 04:39:14;;;;;;;0.00;0.00;;;14.30;99.90;;;;;;4934423;29;20486;-92
2022/07/12 04:41:45;;;;;;;0.00;0.00;;;14.40;99.90;;;;;;4934466;29;20955;-94
2022/07/12 04:44:13;;;;;;;0.00;0.00;;;14.40;99.90;;;;;;4938751;29;20509;-92
2022/07/12 04:46:44;;;;;;;0.00;0.00;;;14.50;99.90;;;;;;4937940;29;20468;-92
2022/07/12 04:49:14;;;;;;;0.00;0.00;;;14.50;99.90;;;;;;4933321;29;20446;-93
2022/07/12 04:51:42;;;;;;;0.00;0.00;;;14.70;99.90;;;;;;4935860;29;20462;-92
2022/07/12 04:54:11;;;;;;;0.00;0.00;;;15.00;99.90;;;;;;4933928;29;20522;-92
2022/07/12 04:56:39;;;;;;;0.00;0.00;;;15.20;99.90;;;;;;4933704;29;20878;-94
2022/07/12 04:59:07;;;;;;;0.00;0.00;;;15.40;99.90;;;;;;4934152;29;20496;-93
2022/07/12 05:01:36;;;;;;;0.00;0.00;;;15.70;99.90;;;;;;4934946;29;20895;-92
2022/07/12 05:04:06;;;;;;;0.00;0.00;;;15.80;99.90;;;;;;4934868;29;20480;-92
2022/07/12 05:06:35;;;;;;;0.00;0.00;;;16.00;99.90;;;;;;4934948;29;20719;-91
2022/07/12 05:09:04;;;;;;;0.00;0.00;;;16.20;99.90;;;;;;4933412;29;20763;-93
2022/07/12 05:11:34;;;;;;;0.00;0.00;;;16.30;99.90;;;;;;4945450;28;20482;-91
2022/07/12 05:14:02;;;;;;;0.00;0.00;;;16.50;99.90;;;;;;4975464;28;20567;-92
2022/07/12 05:16:35;;;;;;;0.00;0.00;;;16.60;99.90;;;;;;4975496;28;20490;-92
2022/07/12 05:19:04;;;;;;;0.00;0.00;;;16.80;99.90;;;;;;4974378;28;20480;-92
2022/07/12 05:21:35;;;;;;;0.00;0.00;;;16.90;99.90;;;;;;4975834;28;20487;-92
2022/07/12 05:24:06;;;;;;;0.00;0.00;;;17.00;99.90;;;;;;4975793;28;20484;-93
2022/07/12 05:26:35;;;;;;;0.00;0.00;;;17.20;99.90;;;;;;4976234;28;20455;-93
2022/07/12 05:29:03;;;;;;;0.00;0.00;;;17.40;99.90;;;;;;4975355;28;20968;-92
2022/07/12 05:31:32;;;;;;;0.00;0.00;;;17.30;99.90;;;;;;4993169;28;20456;-90
2022/07/12 05:34:03;;;;;;;0.00;0.00;;;17.30;99.90;;;;;;4978378;28;20523;-91
2022/07/12 05:36:36;;;;;;;0.00;0.00;;;17.30;99.90;;;;;;4973627;28;20444;-91
2022/07/12 05:39:09;;;;;;;0.00;0.00;;;17.30;99.90;;;;;;4972963;28;20564;-92
2022/07/12 05:41:37;;;;;;;0.00;0.00;;;17.30;99.90;;;;;;4974683;28;20456;-91
2022/07/12 05:44:06;;;;;;;0.00;0.00;;;17.30;99.90;;;;;;4972643;28;20476;-91
2022/07/12 05:46:36;;;;;;;0.00;0.00;;;17.30;99.90;;;;;;4973833;28;20684;-92
2022/07/12 05:49:05;;;;;;;0.00;0.00;;;17.40;99.90;;;;;;4973119;28;20452;-91
2022/07/12 05:54:23;;;;;;;0.00;0.00;;;17.60;99.90;;;;;;4972780;28;20731;-92
2022/07/12 05:56:52;;;;;;;0.00;0.00;;;17.70;99.90;;;;;;4975962;28;20502;-91
2022/07/12 05:59:25;;;;;;;0.00;0.00;;;17.70;99.90;;;;;;4973317;28;20495;-91
2022/07/12 06:01:53;;;;;;;0.00;0.00;;;17.90;99.90;;;;;;4971599;28;20505;-91
2022/07/12 06:04:22;;;;;;;0.00;0.00;;;17.90;99.90;;;;;;4982444;28;20438;-90
2022/07/12 06:06:52;;;;;;;0.00;0.00;;;18.00;99.90;;;;;;4989931;28;20450;-92
2022/07/12 06:09:20;;;;;;;0.00;0.00;;;18.10;99.90;;;;;;4991169;28;20451;-92
2022/07/12 06:11:52;;;;;;;0.00;0.00;;;18.20;99.90;;;;;;4991818;28;20459;-91
2022/07/12 06:14:20;;;;;;;0.00;0.00;;;18.30;99.90;;;;;;4992603;28;20433;-93
2022/07/12 06:16:49;;;;;;;0.00;0.00;;;18.40;99.90;;;;;;4990478;28;20454;-94
2022/07/12 06:19:17;;;;;;;0.00;0.00;;;18.40;99.90;;;;;;4992450;28;20494;-92
2022/07/12 06:21:46;;;;;;;0.00;0.00;;;18.50;99.90;;;;;;4992186;28;20691;-93
2022/07/12 06:24:16;;;;;;;0.00;0.00;;;18.60;99.90;;;;;;4992438;28;20450;-93
2022/07/12 06:26:44;;;;;;;0.00;0.00;;;18.80;99.90;;;;;;4992591;28;20439;-91
2022/07/12 06:29:16;;;;;;;0.00;0.00;;;18.80;99.90;;;;;;4992756;28;20468;-92
2022/07/12 06:31:45;;;;;;;0.00;0.00;;;18.90;99.90;;;;;;4993349;28;20453;-91
2022/07/12 06:34:15;;;;;;;0.00;0.00;;;18.80;99.90;;;;;;4991689;28;20443;-93
2022/07/12 06:36:44;;;;;;;0.00;0.00;;;18.90;99.90;;;;;;4983887;28;20451;-91
2022/07/12 06:39:15;;;;;;;0.00;0.00;;;19.00;99.90;;;;;;4982059;28;20474;-92
2022/07/12 06:41:43;;;;;;;0.00;0.00;;;19.00;99.90;;;;;;4981624;28;20942;-93
2022/07/12 06:44:29;;;;;;;0.00;0.00;;;19.00;99.90;;;;;;4979399;28;20480;-92
2022/07/12 06:47:01;;;;;;;0.00;0.00;;;19.00;99.90;;;;;;4978922;28;20467;-93
2022/07/12 06:49:30;;;;;;;0.00;0.00;;;19.10;99.90;;;;;;4977852;28;20517;-94
2022/07/12 06:51:58;;;;;;;0.00;0.00;;;19.30;99.90;;;;;;4976699;28;20463;-92
2022/07/12 06:54:37;;;;;;;0.00;0.00;;;19.30;99.90;;;;;;4973260;28;20939;-92
2022/07/12 06:57:06;;;;;;;0.00;0.00;;;19.50;99.90;;;;;;4971711;28;20538;-91
2022/07/12 06:59:35;;;;;;;0.00;0.00;;;19.60;99.90;;;;;;4971766;28;20486;-94
2022/07/12 07:02:04;;;;;;;0.00;0.00;;;19.60;99.90;;;;;;4970454;28;20506;-93
2022/07/12 07:04:39;;;;;;;0.00;0.00;;;19.60;99.90;;;;;;4972072;28;20464;-91
2022/07/12 07:07:08;;;;;;;0.00;0.00;;;19.50;99.90;;;;;;4976186;28;20530;-92
2022/07/12 07:09:41;;;;;;;0.00;0.00;;;19.50;99.90;;;;;;4976759;28;20963;-92
2022/07/12 07:12:10;;;;;;;0.00;0.00;;;19.60;99.90;;;;;;4975102;28;20471;-92
2022/07/12 07:14:38;;;;;;;0.00;0.00;;;19.70;99.90;;;;;;4975353;28;20662;-93
2022/07/12 07:17:19;;;;;;;0.00;0.00;;;19.80;99.90;;;;;;4975547;28;20903;-94
2022/07/12 07:20:02;;;;;;;0.00;0.00;;;19.90;99.90;;;;;;4935673;29;20953;-91
2022/07/12 07:22:34;;;;;;;0.00;0.00;;;20.00;99.90;;;;;;4934625;29;20504;-91
2022/07/12 07:25:04;;;;;;;0.00;0.00;;;20.10;99.90;;;;;;4935908;29;20513;-92
2022/07/12 07:27:32;;;;;;;0.00;0.00;;;20.10;99.90;;;;;;4935173;29;20545;-93
2022/07/12 07:32:51;;;;;;;0.00;0.00;;;20.00;99.90;;;;;;4938719;29;20827;-92
2022/07/12 07:35:24;;;;;;;0.00;0.00;;;20.00;99.90;;;;;;4937841;29;20520;-92
2022/07/12 07:37:53;;;;;;;0.00;0.00;;;20.20;99.90;;;;;;4936494;29;20473;-92
2022/07/12 07:40:24;;;;;;;0.00;0.00;;;20.30;99.90;;;;;;4936062;29;20989;-92
2022/07/12 07:42:55;;;;;;;0.00;0.00;;;20.40;99.90;;;;;;4938959;29;20821;-93
2022/07/12 07:45:24;;;;;;;0.00;0.00;;;20.60;99.90;;;;;;4937742;29;20536;-93
2022/07/12 07:47:53;;;;;;;0.00;0.00;;;20.60;99.90;;;;;;4934939;29;20921;-92
2022/07/12 07:50:55;;;;;;;0.00;0.00;;;20.70;99.90;;;;;;4947570;28;20507;-92
2022/07/12 07:53:59;;;;;;;0.00;0.00;;;20.70;99.90;;;;;;4963922;28;20482;-92
2022/07/12 07:56:51;;;;;;;0.00;0.00;;;20.70;99.90;;;;;;4977433;28;20865;-92
2022/07/12 07:59:20;;;;;;;0.00;0.00;;;20.70;99.90;;;;;;4972762;28;21064;-92
2022/07/12 08:02:01;;;;;;;0.00;0.00;;;20.90;99.90;;;;;;4975596;28;20515;-93
2022/07/12 08:04:35;;;;;;;0.00;0.00;;;21.10;99.90;;;;;;4974443;28;20854;-92
2022/07/12 08:07:08;;;;;;;0.00;0.00;;;21.00;99.90;;;;;;4974512;28;20448;-92
2022/07/12 08:09:57;;;;;;;0.00;0.00;;;21.10;99.90;;;;;;4973438;28;20447;-92
2022/07/12 08:12:28;;;;;;;0.00;0.00;;;21.10;99.90;;;;;;4974538;28;20491;-91
2022/07/12 08:14:57;;;;;;;0.00;0.00;;;21.20;99.90;;;;;;4980735;28;20481;-92
2022/07/12 08:17:36;;;;;;;0.00;0.00;;;21.30;99.90;;;;;;4975761;28;20448;-92
2022/07/12 08:20:13;;;;;;;0.00;0.00;;;21.40;99.90;;;;;;4981890;28;20471;-92
2022/07/12 08:23:06;;;;;;;0.00;0.00;;;21.40;99.90;;;;;;4985643;28;20504;-93
2022/07/12 08:25:35;;;;;;;0.00;0.00;;;21.50;99.90;;;;;;4984507;28;20436;-92
2022/07/12 08:28:05;;;;;;;0.00;0.00;;;21.40;99.90;;;;;;4987287;28;20445;-91
2022/07/12 08:30:35;;;;;;;0.00;0.00;;;21.40;99.90;;;;;;4992740;28;20442;-90
2022/07/12 08:33:12;;;;;;;0.00;0.00;;;21.30;99.90;;;;;;4994358;28;20460;-93
2022/07/12 08:35:41;;;;;;;0.00;0.00;;;21.30;99.90;;;;;;4983854;28;20551;-91
2022/07/12 08:38:12;;;;;;;0.00;0.00;;;21.40;99.90;;;;;;4980335;28;20455;-92
2022/07/12 08:40:42;;;;;;;0.00;0.00;;;21.40;99.90;;;;;;4981627;28;20480;-92
2022/07/12 08:43:12;;;;;;;0.00;0.00;;;21.30;99.90;;;;;;4986158;28;20536;-93
2022/07/12 08:45:41;;;;;;;0.00;0.00;;;21.40;99.90;;;;;;4986004;28;20546;-91
2022/07/12 08:48:09;;;;;;;0.00;0.00;;;21.40;99.90;;;;;;4979864;28;20945;-93
2022/07/12 08:50:42;;;;;;;0.00;0.00;;;21.50;99.90;;;;;;4979095;28;20445;-91
2022/07/12 08:53:13;;;;;;;0.00;0.00;;;21.50;99.90;;;;;;4980174;28;20538;-90
2022/07/12 08:55:42;;;;;;;0.00;0.00;;;21.60;99.90;;;;;;4978855;28;20448;-92
2022/07/12 08:58:19;;;;;;;0.00;0.00;;;21.70;99.90;;;;;;4979285;28;20449;-92
2022/07/12 09:00:56;;;;;;;0.00;0.00;;;21.80;99.90;;;;;;4977236;28;20534;-90
2022/07/12 09:03:25;;;;;;;0.00;0.00;;;22.00;99.90;;;;;;4977809;28;20485;-91
2022/07/12 09:05:58;;;;;;;0.00;0.00;;;22.00;99.90;;;;;;4976906;28;20457;-91
2022/07/12 09:08:39;;;;;;;0.00;0.00;;;22.10;99.90;;;;;;4979720;28;20450;-93
2022/07/12 09:11:08;;;;;;;0.00;0.00;;;22.00;99.90;;;;;;4982547;28;20565;-92
2022/07/12 09:13:53;;;;;;;0.00;0.00;;;21.90;99.90;;;;;;4993163;28;20472;-93
2022/07/12 09:16:26;;;;;;;0.00;0.00;;;21.80;99.90;;;;;;4991727;28;20442;-95
2022/07/12 09:19:13;;;;;;;0.00;0.00;;;21.80;99.90;;;;;;4991807;28;20495;-93
2022/07/12 09:21:49;;;;;;;0.00;0.00;;;21.70;99.90;;;;;;4985534;28;20647;-91
2022/07/12 09:24:19;;;;;;;0.00;0.00;;;21.60;99.90;;;;;;4978730;28;20533;-91
2022/07/12 09:26:47;;;;;;;0.00;0.00;;;21.50;99.90;;;;;;4978259;28;20454;-91
2022/07/12 09:29:19;;;;;;;0.00;0.00;;;21.30;99.90;;;;;;4978444;28;20433;-92
2022/07/12 09:37:41;;;;;;;0.00;0.00;;;21.10;99.90;;;;;;4919213;29;20778;-92
2022/07/12 09:40:11;;;;;;;0.00;0.00;;;21.20;99.90;;;;;;4917187;29;20479;-91
2022/07/12 09:42:41;;;;;;;0.00;0.00;;;21.00;99.90;;;;;;4948074;28;20539;-91
2022/07/12 09:45:12;;;;;;;0.00;0.00;;;21.00;99.90;;;;;;4978370;28;20448;-92
2022/07/12 09:47:44;;;;;;;0.00;0.00;;;21.10;99.90;;;;;;4980875;28;20452;-90
2022/07/12 09:50:17;;;;;;;0.00;0.00;;;21.10;99.90;;;;;;4979109;28;20705;-92
2022/07/12 09:52:55;;;;;;;0.00;0.00;;;21.10;99.90;;;;;;4980596;28;20466;-92
2022/07/12 09:55:41;;;;;;;0.00;0.00;;;21.20;99.90;;;;;;4979778;28;20530;-91
2022/07/12 09:58:12;;;;;;;0.00;0.00;;;21.20;99.90;;;;;;4980751;28;20565;-92
2022/07/12 10:00:54;;;;;;;0.00;0.00;;;21.00;99.90;;;;;;4979661;28;20472;-93
2022/07/12 10:03:24;;;;;;;0.00;0.00;;;21.20;99.90;;;;;;4980780;28;20535;-91
2022/07/12 10:05:53;;;;;;;0.00;0.00;;;21.30;99.90;;;;;;4981299;28;20878;-94
2022/07/12 10:08:24;;;;;;;0.00;0.00;;;21.40;99.90;;;;;;4984938;28;20457;-91
2022/07/12 10:10:55;;;;;;;0.00;0.00;;;21.50;99.90;;;;;;4986229;28;20444;-91
2022/07/12 10:13:26;;;;;;;0.00;0.00;;;21.60;99.90;;;;;;4988790;28;20504;-92
2022/07/12 10:16:12;;;;;;;0.00;0.00;;;21.70;99.90;;;;;;4986045;28;20448;-92
2022/07/12 10:18:51;;;;;;;0.00;0.00;;;21.70;99.90;;;;;;4987923;28;20477;-92
2022/07/12 10:21:29;;;;;;;0.00;0.00;;;21.50;99.90;;;;;;4986035;28;20481;-91
2022/07/12 10:24:10;;;;;;;0.00;0.00;;;21.60;99.90;;;;;;4984817;28;20508;-92
2022/07/12 10:26:39;;;;;;;0.00;0.00;;;21.60;99.90;;;;;;4979775;28;20476;-92
2022/07/12 10:29:10;;;;;;;0.00;0.00;;;21.80;99.90;;;;;;4980519;28;20500;-92
2022/07/12 10:31:41;;;;;;;0.00;0.00;;;21.90;99.90;;;;;;4982119;28;20507;-93
2022/07/12 10:34:18;;;;;;;0.00;0.00;;;22.00;99.90;;;;;;4989926;28;20481;-90
2022/07/12 10:37:13;;;;;;;0.00;0.00;;;22.10;99.90;;;;;;4984135;28;20476;-92
2022/07/12 10:40:17;;;;;;;0.00;0.00;;;22.30;99.90;;;;;;4958557;28;20519;-92
2022/07/12 10:44:04;;;;;;;0.00;0.00;;;22.60;99.90;;;;;;4986997;28;20605;-93
2022/07/12 10:46:23;;;;;;;0.00;0.00;;;22.60;99.90;;;;;;4987860;28;20461;-91
2022/07/12 10:49:29;;;;;;;0.00;0.00;;;22.90;99.90;;;;;;4985037;28;20468;-91
2022/07/12 10:52:24;;;;;;;0.00;0.00;;;22.90;99.90;;;;;;4987841;28;20479;-94
2022/07/12 10:55:18;;;;;;;0.00;0.00;;;22.90;99.90;;;;;;4983411;28;20434;-93
2022/07/12 10:57:51;;;;;;;0.00;0.00;;;23.00;99.90;;;;;;4986053;28;20478;-93
2022/07/12 11:00:25;;;;;;;0.00;0.00;;;22.90;99.90;;;;;;4986489;28;20469;-94
2022/07/12 11:02:56;;;;;;;0.00;0.00;;;23.00;99.90;;;;;;4990040;28;20852;-92
2022/07/12 11:05:33;;;;;;;0.00;0.00;;;23.10;99.90;;;;;;4993056;28;20454;-93
2022/07/12 11:08:02;;;;;;;0.00;0.00;;;23.20;99.90;;;;;;4987099;28;20463;-92
2022/07/12 11:10:40;;;;;;;0.00;0.00;;;23.20;99.90;;;;;;4987557;28;20454;-93
2022/07/12 11:13:29;;;;;;;0.00;0.00;;;23.20;99.90;;;;;;4987797;28;20477;-94
2022/07/12 11:16:03;;;;;;;0.00;0.00;;;23.30;99.90;;;;;;4988606;28;20460;-91
2022/07/12 11:18:43;;;;;;;0.00;0.00;;;23.20;99.90;;;;;;4986389;28;20452;-92
2022/07/12 11:21:19;;;;;;;0.00;0.00;;;23.30;99.90;;;;;;4986258;28;20440;-93
2022/07/12 11:23:55;;;;;;;0.00;0.00;;;23.40;99.90;;;;;;4980936;28;20706;-93
2022/07/12 11:26:24;;;;;;;0.00;0.00;;;23.60;99.90;;;;;;4981519;28;20787;-91
2022/07/12 11:29:00;;;;;;;0.00;0.00;;;23.70;99.90;;;;;;4981187;28;20603;-91
2022/07/12 11:31:29;;;;;;;0.00;0.00;;;23.80;99.90;;;;;;4984407;28;20729;-92
2022/07/12 11:34:00;;;;;;;0.00;0.00;;;23.90;99.90;;;;;;4989969;28;20475;-92
2022/07/12 11:36:33;;;;;;;0.00;0.00;;;23.90;99.90;;;;;;4988962;28;20458;-93
2022/07/12 11:39:04;;;;;;;0.00;0.00;;;23.90;99.90;;;;;;4980151;28;20459;-91
2022/07/12 11:41:33;;;;;;;0.00;0.00;;;23.90;99.90;;;;;;4977451;28;20485;-92
2022/07/12 11:44:01;;;;;;;0.00;0.00;;;24.00;99.90;;;;;;4977943;28;20527;-91
2022/07/12 11:46:30;;;;;;;0.00;0.00;;;24.10;99.90;;;;;;4975909;28;20812;-91
2022/07/12 11:49:03;;;;;;;0.00;0.00;;;24.20;99.90;;;;;;4977756;28;20473;-91
2022/07/12 11:51:35;;;;;;;0.00;0.00;;;24.20;99.90;;;;;;4985607;28;20464;-92
2022/07/12 11:54:16;;;;;;;0.00;0.00;;;24.20;99.90;;;;;;4981776;28;20472;-92
2022/07/12 11:56:46;;;;;;;0.00;0.00;;;24.20;99.90;;;;;;4981004;28;20467;-92
2022/07/12 11:59:23;;;;;;;0.00;0.00;;;24.20;99.90;;;;;;4989632;28;21394;-94
2022/07/12 12:02:07;;;;;;;0.00;0.00;;;24.20;99.90;;;;;;4994110;28;20544;-93
2022/07/12 12:04:47;;;;;;;0.00;0.00;;;24.20;99.90;;;;;;4980484;28;20957;-92
2022/07/12 12:07:25;;;;;;;0.00;0.00;;;24.30;99.90;;;;;;4982773;28;20463;-91
2022/07/12 12:10:02;;;;;;;0.00;0.00;;;24.40;99.90;;;;;;4983395;28;20461;-92
2022/07/12 12:12:40;;;;;;;0.00;0.00;;;24.50;99.90;;;;;;4983664;28;20472;-92
2022/07/12 12:15:11;;;;;;;0.00;0.00;;;24.50;99.90;;;;;;4986532;28;20446;-93
2022/07/12 12:17:47;;;;;;;0.00;0.00;;;24.60;99.90;;;;;;4993704;28;20447;-92
2022/07/12 12:20:20;;;;;;;0.00;0.00;;;24.70;99.90;;;;;;4984866;28;20466;-91
2022/07/12 12:22:54;;;;;;;0.00;0.00;;;24.70;99.90;;;;;;4982193;28;20490;-92
2022/07/12 12:25:25;;;;;;;0.00;0.00;;;24.60;99.90;;;;;;4979148;28;20469;-92
2022/07/12 12:27:57;;;;;;;0.00;0.00;;;24.60;99.90;;;;;;4980596;28;20469;-92
2022/07/12 12:30:50;;;;;;;0.00;0.00;;;24.70;99.90;;;;;;4979789;28;20822;-91
2022/07/12 12:33:35;;;;;;;0.00;0.00;;;24.80;99.90;;;;;;4980655;28;20481;-93
2022/07/12 12:36:22;;;;;;;0.00;0.00;;;24.90;99.90;;;;;;4994858;28;20663;-92
2022/07/12 12:38:55;;;;;;;0.00;0.00;;;24.90;99.90;;;;;;4978774;28;20508;-92
2022/07/12 12:41:24;;;;;;;0.00;0.00;;;24.90;99.90;;;;;;4978682;28;20453;-91
2022/07/12 12:44:00;;;;;;;0.00;0.00;;;24.80;99.90;;;;;;4980201;28;20486;-92
2022/07/12 12:46:47;;;;;;;0.00;0.00;;;24.80;99.90;;;;;;4977513;28;20578;-93
2022/07/12 12:49:16;;;;;;;0.00;0.00;;;24.90;99.90;;;;;;4980047;28;20461;-93
2022/07/12 12:51:58;;;;;;;0.00;0.00;;;25.00;99.90;;;;;;4978214;28;20504;-91
2022/07/12 12:54:44;;;;;;;0.00;0.00;;;25.00;99.90;;;;;;4979442;28;20489;-91
2022/07/12 12:57:14;;;;;;;0.00;0.00;;;24.70;99.90;;;;;;4980053;28;20883;-93
2022/07/12 12:59:44;;;;;;;0.00;0.00;;;24.70;99.90;;;;;;4983923;28;20606;-91
2022/07/12 13:02:13;;;;;;;0.00;0.00;;;24.70;99.90;;;;;;4981326;28;20478;-93
2022/07/12 13:04:46;;;;;;;0.00;0.00;;;24.80;99.90;;;;;;4980110;28;20462;-93
2022/07/12 13:07:17;;;;;;;0.00;0.00;;;24.90;99.90;;;;;;4981916;28;20451;-92
2022/07/12 13:09:49;;;;;;;0.00;0.00;;;25.00;99.90;;;;;;4979574;28;20985;-93
2022/07/12 13:12:18;;;;;;;0.00;0.00;;;25.00;99.90;;;;;;4979714;28;20985;-94
2022/07/12 13:14:46;;;;;;;0.00;0.00;;;24.80;99.90;;;;;;4979847;28;20610;-93
2022/07/12 13:17:15;;;;;;;0.00;0.00;;;25.00;99.90;;;;;;4979606;28;20485;-92
2022/07/12 13:19:45;;;;;;;0.00;0.00;;;25.10;99.90;;;;;;4979361;28;20464;-92
2022/07/12 13:22:22;;;;;;;0.00;0.00;;;25.10;99.90;;;;;;4978687;28;20494;-92
2022/07/12 13:24:54;;;;;;;0.00;0.00;;;25.20;99.90;;;;;;4977100;28;20599;-90
2022/07/12 13:27:29;;;;;;;0.00;0.00;;;25.20;99.90;;;;;;4980474;28;20613;-93
2022/07/12 13:29:59;;;;;;;0.00;0.00;;;25.20;99.90;;;;;;4979034;28;20515;-92